sensor_id;sensor_type;location;lat;lon;timestamp;pressure;altitude;pressure_sealevel;temperature;humidity
69879;BME280;57161;43.136;24.706;2022-07-04T00:00:05;99250.28;;;23.14;69.61
69879;BME280;57161;43.136;24.706;2022-07-04T00:02:32;99262.19;;;23.11;70.08
69879;BME280;57161;43.136;24.706;2022-07-04T00:04:58;99257.53;;;23.03;70.25
69879;BME280;57161;43.136;24.706;2022-07-04T00:07:23;99259.53;;;23.01;69.90
69879;BME280;57161;43.136;24.706;2022-07-04T00:09:49;99255.94;;;23.00;70.08
69879;BME280;57161;43.136;24.706;2022-07-04T00:12:14;99251.63;;;22.99;69.96
69879;BME280;57161;43.136;24.706;2022-07-04T00:14:40;99253.00;;;22.98;70.23
69879;BME280;57161;43.136;24.706;2022-07-04T00:17:05;99251.72;;;23.01;70.01
69879;BME280;57161;43.136;24.706;2022-07-04T00:19:31;99244.56;;;23.00;70.25
69879;BME280;57161;43.136;24.706;2022-07-04T00:21:57;99251.72;;;23.01;69.84
69879;BME280;57161;43.136;24.706;2022-07-04T00:24:22;99247.41;;;23.00;70.11
69879;BME280;57161;43.136;24.706;2022-07-04T00:26:48;99254.78;;;23.05;70.70
69879;BME280;57161;43.136;24.706;2022-07-04T00:29:13;99251.84;;;23.03;70.33
69879;BME280;57161;43.136;24.706;2022-07-04T00:31:39;99248.44;;;22.93;69.67
69879;BME280;57161;43.136;24.706;2022-07-04T00:34:05;99263.13;;;23.01;70.01
69879;BME280;57161;43.136;24.706;2022-07-04T00:36:31;99269.78;;;23.06;70.33
69879;BME280;57161;43.136;24.706;2022-07-04T00:38:56;99263.69;;;23.12;70.71
69879;BME280;57161;43.136;24.706;2022-07-04T00:41:22;99270.97;;;23.15;70.39
69879;BME280;57161;43.136;24.706;2022-07-04T00:46:29;99275.69;;;23.10;69.53
69879;BME280;57161;43.136;24.706;2022-07-04T00:48:55;99259.66;;;23.03;69.18
69879;BME280;57161;43.136;24.706;2022-07-04T00:51:21;99265.22;;;23.01;69.32
69879;BME280;57161;43.136;24.706;2022-07-04T00:53:47;99268.19;;;23.03;70.10
69879;BME280;57161;43.136;24.706;2022-07-04T00:56:12;99256.38;;;22.95;70.42
69879;BME280;57161;43.136;24.706;2022-07-04T00:58:38;99260.28;;;23.01;70.36
69879;BME280;57161;43.136;24.706;2022-07-04T01:01:03;99269.03;;;23.05;70.38
69879;BME280;57161;43.136;24.706;2022-07-04T01:03:29;99265.34;;;23.03;70.65
69879;BME280;57161;43.136;24.706;2022-07-04T01:05:56;99275.16;;;23.00;70.18
69879;BME280;57161;43.136;24.706;2022-07-04T01:08:23;99271.97;;;22.94;69.43
69879;BME280;57161;43.136;24.706;2022-07-04T01:10:49;99266.25;;;22.94;69.24
69879;BME280;57161;43.136;24.706;2022-07-04T01:13:22;99270.28;;;22.89;69.81
69879;BME280;57161;43.136;24.706;2022-07-04T01:15:48;99266.38;;;22.82;69.83
69879;BME280;57161;43.136;24.706;2022-07-04T01:18:14;99255.47;;;22.79;69.76
69879;BME280;57161;43.136;24.706;2022-07-04T01:20:40;99260.53;;;22.80;69.39
69879;BME280;57161;43.136;24.706;2022-07-04T01:23:05;99249.84;;;22.67;69.29
69879;BME280;57161;43.136;24.706;2022-07-04T01:25:32;99254.16;;;22.68;69.62
69879;BME280;57161;43.136;24.706;2022-07-04T01:28:01;99236.63;;;22.60;69.38
69879;BME280;57161;43.136;24.706;2022-07-04T01:30:27;99257.53;;;22.64;69.73
69879;BME280;57161;43.136;24.706;2022-07-04T01:32:53;99258.38;;;22.67;69.47
69879;BME280;57161;43.136;24.706;2022-07-04T01:35:19;99256.78;;;22.64;70.03
69879;BME280;57161;43.136;24.706;2022-07-04T01:37:45;99246.84;;;22.51;70.72
69879;BME280;57161;43.136;24.706;2022-07-04T01:40:11;99249.78;;;22.53;70.52
69879;BME280;57161;43.136;24.706;2022-07-04T01:42:40;99256.16;;;22.65;70.85
69879;BME280;57161;43.136;24.706;2022-07-04T01:45:07;99256.28;;;22.67;70.54
69879;BME280;57161;43.136;24.706;2022-07-04T01:47:32;99252.06;;;22.68;70.86
69879;BME280;57161;43.136;24.706;2022-07-04T01:49:58;99256.91;;;22.66;70.25
69879;BME280;57161;43.136;24.706;2022-07-04T01:52:24;99258.75;;;22.61;69.96
69879;BME280;57161;43.136;24.706;2022-07-04T01:54:50;99253.69;;;22.60;70.11
69879;BME280;57161;43.136;24.706;2022-07-04T01:57:15;99256.16;;;22.65;70.26
69879;BME280;57161;43.136;24.706;2022-07-04T01:59:41;99266.84;;;22.79;69.98
69879;BME280;57161;43.136;24.706;2022-07-04T02:02:25;99269.72;;;22.79;70.10
69879;BME280;57161;43.136;24.706;2022-07-04T02:04:50;99269.56;;;22.76;70.03
69879;BME280;57161;43.136;24.706;2022-07-04T02:07:16;99269.47;;;22.74;69.93
69879;BME280;57161;43.136;24.706;2022-07-04T02:09:42;99275.00;;;22.84;69.83
69879;BME280;57161;43.136;24.706;2022-07-04T02:12:08;99275.13;;;22.86;69.39
69879;BME280;57161;43.136;24.706;2022-07-04T02:14:57;99284.50;;;22.89;69.57
69879;BME280;57161;43.136;24.706;2022-07-04T02:17:22;99287.25;;;22.87;69.60
69879;BME280;57161;43.136;24.706;2022-07-04T02:19:48;99278.59;;;22.85;69.36
69879;BME280;57161;43.136;24.706;2022-07-04T02:22:14;99283.56;;;22.84;69.20
69879;BME280;57161;43.136;24.706;2022-07-04T02:24:40;99282.84;;;22.72;68.70
69879;BME280;57161;43.136;24.706;2022-07-04T02:27:06;99282.91;;;22.60;68.48
69879;BME280;57161;43.136;24.706;2022-07-04T02:29:31;99288.84;;;22.64;68.88
69879;BME280;57161;43.136;24.706;2022-07-04T02:31:57;99288.91;;;22.53;69.14
69879;BME280;57161;43.136;24.706;2022-07-04T02:34:23;99270.41;;;22.40;69.28
69879;BME280;57161;43.136;24.706;2022-07-04T02:36:49;99281.78;;;22.40;69.20
69879;BME280;57161;43.136;24.706;2022-07-04T02:39:14;99280.81;;;22.35;69.62
69879;BME280;57161;43.136;24.706;2022-07-04T02:41:40;99291.47;;;22.35;70.04
69879;BME280;57161;43.136;24.706;2022-07-04T02:44:06;99291.25;;;22.31;69.75
69879;BME280;57161;43.136;24.706;2022-07-04T02:46:31;99284.22;;;22.20;70.08
69879;BME280;57161;43.136;24.706;2022-07-04T02:49:00;99295.94;;;22.26;69.88
69879;BME280;57161;43.136;24.706;2022-07-04T02:51:26;99295.72;;;22.22;70.16
69879;BME280;57161;43.136;24.706;2022-07-04T02:53:52;99294.75;;;22.17;70.54
69879;BME280;57161;43.136;24.706;2022-07-04T02:56:18;99301.69;;;22.14;70.55
69879;BME280;57161;43.136;24.706;2022-07-04T02:58:44;99306.25;;;22.20;70.29
69879;BME280;57161;43.136;24.706;2022-07-04T03:01:09;99301.81;;;22.16;70.42
69879;BME280;57161;43.136;24.706;2022-07-04T03:03:35;99300.56;;;22.20;70.62
69879;BME280;57161;43.136;24.706;2022-07-04T03:06:01;99295.75;;;22.10;70.66
69879;BME280;57161;43.136;24.706;2022-07-04T03:08:26;99292.06;;;22.08;70.72
69879;BME280;57161;43.136;24.706;2022-07-04T03:10:52;99298.47;;;22.08;71.11
69879;BME280;57161;43.136;24.706;2022-07-04T03:13:18;99301.44;;;22.10;70.88
69879;BME280;57161;43.136;24.706;2022-07-04T03:15:44;99302.44;;;22.03;70.78
69879;BME280;57161;43.136;24.706;2022-07-04T03:18:10;99301.69;;;22.03;71.06
69879;BME280;57161;43.136;24.706;2022-07-04T03:20:36;99303.09;;;21.90;71.42
69879;BME280;57161;43.136;24.706;2022-07-04T03:23:01;99302.47;;;21.92;71.49
69879;BME280;57161;43.136;24.706;2022-07-04T03:25:27;99305.53;;;21.96;71.46
69879;BME280;57161;43.136;24.706;2022-07-04T03:27:52;99302.69;;;21.96;71.77
69879;BME280;57161;43.136;24.706;2022-07-04T03:30:18;99301.72;;;21.91;71.68
69879;BME280;57161;43.136;24.706;2022-07-04T03:32:43;99305.28;;;22.03;71.50
69879;BME280;57161;43.136;24.706;2022-07-04T03:35:09;99311.84;;;22.06;71.45
69879;BME280;57161;43.136;24.706;2022-07-04T03:37:34;99308.38;;;22.07;71.28
69879;BME280;57161;43.136;24.706;2022-07-04T03:40:00;99313.81;;;22.15;71.06
69879;BME280;57161;43.136;24.706;2022-07-04T03:42:26;99302.44;;;22.15;71.05
69879;BME280;57161;43.136;24.706;2022-07-04T03:44:51;99303.06;;;22.13;70.95
69879;BME280;57161;43.136;24.706;2022-07-04T03:47:17;99289.28;;;22.22;70.67
69879;BME280;57161;43.136;24.706;2022-07-04T03:49:43;99304.56;;;22.40;70.40
69879;BME280;57161;43.136;24.706;2022-07-04T03:52:08;99296.38;;;22.46;70.25
69879;BME280;57161;43.136;24.706;2022-07-04T03:54:34;99297.13;;;22.46;70.12
69879;BME280;57161;43.136;24.706;2022-07-04T03:56:59;99316.81;;;22.68;69.58
69879;BME280;57161;43.136;24.706;2022-07-04T03:59:25;99317.25;;;22.76;69.12
69879;BME280;57161;43.136;24.706;2022-07-04T04:01:50;99301.41;;;22.73;68.91
69879;BME280;57161;43.136;24.706;2022-07-04T04:04:15;99294.56;;;22.64;68.88
69879;BME280;57161;43.136;24.706;2022-07-04T04:07:00;99303.63;;;22.74;68.81
69879;BME280;57161;43.136;24.706;2022-07-04T04:09:25;99310.56;;;22.83;68.32
69879;BME280;57161;43.136;24.706;2022-07-04T04:11:51;99320.84;;;23.02;68.39
69879;BME280;57161;43.136;24.706;2022-07-04T04:14:17;99327.22;;;23.14;67.84
69879;BME280;57161;43.136;24.706;2022-07-04T04:16:42;99333.13;;;23.18;67.39
69879;BME280;57161;43.136;24.706;2022-07-04T04:19:09;99304.31;;;23.12;67.28
69879;BME280;57161;43.136;24.706;2022-07-04T04:21:34;99320.66;;;23.25;67.23
69879;BME280;57161;43.136;24.706;2022-07-04T04:24:01;99341.84;;;23.48;66.80
69879;BME280;57161;43.136;24.706;2022-07-04T04:26:27;99340.88;;;23.43;66.43
69879;BME280;57161;43.136;24.706;2022-07-04T04:28:53;99335.91;;;23.44;66.46
69879;BME280;57161;43.136;24.706;2022-07-04T04:31:18;99341.63;;;23.44;66.42
69879;BME280;57161;43.136;24.706;2022-07-04T04:33:44;99354.09;;;23.50;66.50
69879;BME280;57161;43.136;24.706;2022-07-04T04:36:09;99354.81;;;23.51;66.21
69879;BME280;57161;43.136;24.706;2022-07-04T04:38:35;99345.97;;;23.58;66.61
69879;BME280;57161;43.136;24.706;2022-07-04T04:41:00;99352.84;;;23.67;66.33
69879;BME280;57161;43.136;24.706;2022-07-04T05:13:43;99354.50;;;25.00;61.40
69879;BME280;57161;43.136;24.706;2022-07-04T05:16:08;99344.97;;;24.95;61.28
69879;BME280;57161;43.136;24.706;2022-07-04T05:18:34;99362.44;;;25.17;61.20
69879;BME280;57161;43.136;24.706;2022-07-04T05:20:59;99362.00;;;25.23;60.69
69879;BME280;57161;43.136;24.706;2022-07-04T05:23:25;99364.50;;;25.30;60.66
69879;BME280;57161;43.136;24.706;2022-07-04T05:25:50;99358.31;;;25.36;60.29
69879;BME280;57161;43.136;24.706;2022-07-04T05:28:16;99350.84;;;25.44;60.60
69879;BME280;57161;43.136;24.706;2022-07-04T05:30:41;99359.97;;;25.57;60.33
69879;BME280;57161;43.136;24.706;2022-07-04T05:33:07;99350.75;;;25.58;60.11
69879;BME280;57161;43.136;24.706;2022-07-04T05:35:33;99367.63;;;25.84;60.17
69879;BME280;57161;43.136;24.706;2022-07-04T05:41:20;99349.00;;;26.16;59.04
69879;BME280;57161;43.136;24.706;2022-07-04T05:43:45;99352.28;;;26.26;57.92
69879;BME280;57161;43.136;24.706;2022-07-04T05:46:11;99358.22;;;26.48;57.26
69879;BME280;57161;43.136;24.706;2022-07-04T05:48:36;99364.16;;;26.52;56.85
69879;BME280;57161;43.136;24.706;2022-07-04T05:51:03;99347.84;;;26.57;57.28
69879;BME280;57161;43.136;24.706;2022-07-04T05:53:28;99360.28;;;26.81;57.06
69879;BME280;57161;43.136;24.706;2022-07-04T05:55:54;99369.13;;;27.05;56.52
69879;BME280;57161;43.136;24.706;2022-07-04T05:58:19;99359.69;;;27.20;56.29
69879;BME280;57161;43.136;24.706;2022-07-04T06:00:45;99359.66;;;27.38;55.93
69879;BME280;57161;43.136;24.706;2022-07-04T06:03:10;99375.97;;;27.71;55.33
69879;BME280;57161;43.136;24.706;2022-07-04T06:05:36;99380.44;;;27.96;55.16
69879;BME280;57161;43.136;24.706;2022-07-04T06:08:02;99363.19;;;27.96;55.07
69879;BME280;57161;43.136;24.706;2022-07-04T06:10:28;99370.41;;;28.17;54.62
69879;BME280;57161;43.136;24.706;2022-07-04T06:12:53;99360.06;;;28.30;54.23
69879;BME280;57161;43.136;24.706;2022-07-04T06:15:19;99337.31;;;28.36;54.11
69879;BME280;57161;43.136;24.706;2022-07-04T06:17:44;99350.88;;;28.55;53.42
69879;BME280;57161;43.136;24.706;2022-07-04T06:20:10;99345.66;;;28.72;53.26
69879;BME280;57161;43.136;24.706;2022-07-04T06:22:44;99342.16;;;28.75;53.03
69879;BME280;57161;43.136;24.706;2022-07-04T06:25:14;99357.53;;;28.84;52.98
69879;BME280;57161;43.136;24.706;2022-07-04T06:27:41;99350.13;;;28.77;53.10
69879;BME280;57161;43.136;24.706;2022-07-04T06:30:07;99351.06;;;28.83;52.94
69879;BME280;57161;43.136;24.706;2022-07-04T06:32:47;99354.19;;;28.91;52.60
69879;BME280;57161;43.136;24.706;2022-07-04T06:35:16;99338.88;;;28.85;52.44
69879;BME280;57161;43.136;24.706;2022-07-04T06:38:00;99337.88;;;28.76;53.11
69879;BME280;57161;43.136;24.706;2022-07-04T06:40:25;99345.78;;;28.97;52.13
69879;BME280;57161;43.136;24.706;2022-07-04T06:42:56;99354.03;;;29.09;52.39
69879;BME280;57161;43.136;24.706;2022-07-04T06:45:26;99333.63;;;29.25;50.75
69879;BME280;57161;43.136;24.706;2022-07-04T06:47:52;99350.97;;;29.51;50.56
69879;BME280;57161;43.136;24.706;2022-07-04T06:50:18;99338.13;;;29.54;50.85
69879;BME280;57161;43.136;24.706;2022-07-04T06:52:44;99319.28;;;29.49;50.17
69879;BME280;57161;43.136;24.706;2022-07-04T06:55:48;99331.69;;;29.81;48.29
69879;BME280;57161;43.136;24.706;2022-07-04T06:59:12;99342.41;;;30.05;48.24
69879;BME280;57161;43.136;24.706;2022-07-04T07:01:37;99339.13;;;30.16;48.51
69879;BME280;57161;43.136;24.706;2022-07-04T07:04:03;99331.81;;;30.41;47.24
69879;BME280;57161;43.136;24.706;2022-07-04T07:06:29;99333.09;;;30.62;44.03
69879;BME280;57161;43.136;24.706;2022-07-04T07:08:54;99329.88;;;30.80;42.60
69879;BME280;57161;43.136;24.706;2022-07-04T07:11:19;99335.13;;;30.90;42.51
69879;BME280;57161;43.136;24.706;2022-07-04T07:13:49;99342.53;;;30.97;42.12
69879;BME280;57161;43.136;24.706;2022-07-04T07:16:17;99341.88;;;31.00;40.72
69879;BME280;57161;43.136;24.706;2022-07-04T07:18:44;99330.53;;;31.09;39.52
69879;BME280;57161;43.136;24.706;2022-07-04T07:21:09;99320.03;;;31.23;39.06
69879;BME280;57161;43.136;24.706;2022-07-04T07:23:39;99326.84;;;31.38;38.10
69879;BME280;57161;43.136;24.706;2022-07-04T07:26:05;99319.31;;;31.57;38.90
69879;BME280;57161;43.136;24.706;2022-07-04T07:28:30;99327.41;;;31.66;38.37
69879;BME280;57161;43.136;24.706;2022-07-04T07:30:56;99314.41;;;31.65;37.03
69879;BME280;57161;43.136;24.706;2022-07-04T07:33:21;99313.22;;;31.77;35.94
69879;BME280;57161;43.136;24.706;2022-07-04T07:35:47;99295.00;;;31.70;36.88
69879;BME280;57161;43.136;24.706;2022-07-04T07:38:12;99316.31;;;31.89;37.25
69879;BME280;57161;43.136;24.706;2022-07-04T07:40:38;99306.34;;;31.96;35.95
69879;BME280;57161;43.136;24.706;2022-07-04T07:43:03;99307.53;;;31.83;35.64
69879;BME280;57161;43.136;24.706;2022-07-04T07:45:29;99308.94;;;31.80;36.82
69879;BME280;57161;43.136;24.706;2022-07-04T07:47:54;99319.34;;;31.97;35.25
69879;BME280;57161;43.136;24.706;2022-07-04T07:50:20;99307.16;;;32.03;34.93
69879;BME280;57161;43.136;24.706;2022-07-04T07:52:45;99317.44;;;32.12;36.05
69879;BME280;57161;43.136;24.706;2022-07-04T07:55:10;99310.25;;;32.13;35.03
69879;BME280;57161;43.136;24.706;2022-07-04T07:57:36;99297.22;;;32.12;34.79
69879;BME280;57161;43.136;24.706;2022-07-04T08:00:02;99279.13;;;32.09;34.88
69879;BME280;57161;43.136;24.706;2022-07-04T08:02:28;99305.53;;;32.32;34.66
69879;BME280;57161;43.136;24.706;2022-07-04T08:05:12;99296.53;;;32.13;34.05
69879;BME280;57161;43.136;24.706;2022-07-04T08:07:38;99288.63;;;32.16;34.14
69879;BME280;57161;43.136;24.706;2022-07-04T08:10:04;99299.88;;;32.40;34.30
69879;BME280;57161;43.136;24.706;2022-07-04T08:12:30;99307.97;;;32.49;34.16
69879;BME280;57161;43.136;24.706;2022-07-04T08:14:55;99306.66;;;32.57;34.21
69879;BME280;57161;43.136;24.706;2022-07-04T08:17:21;99299.34;;;32.53;33.21
69879;BME280;57161;43.136;24.706;2022-07-04T08:19:46;99299.53;;;32.64;32.94
69879;BME280;57161;43.136;24.706;2022-07-04T08:22:13;99293.09;;;32.69;33.60
69879;BME280;57161;43.136;24.706;2022-07-04T08:24:38;99302.19;;;32.96;31.98
69879;BME280;57161;43.136;24.706;2022-07-04T08:27:04;99303.66;;;32.97;32.17
69879;BME280;57161;43.136;24.706;2022-07-04T08:29:29;99294.28;;;33.00;33.11
69879;BME280;57161;43.136;24.706;2022-07-04T08:31:58;99302.47;;;33.18;32.25
69879;BME280;57161;43.136;24.706;2022-07-04T08:34:23;99293.72;;;33.12;30.90
69879;BME280;57161;43.136;24.706;2022-07-04T08:36:49;99296.69;;;33.18;31.50
69879;BME280;57161;43.136;24.706;2022-07-04T08:39:14;99287.94;;;33.12;32.08
69879;BME280;57161;43.136;24.706;2022-07-04T08:41:41;99306.88;;;33.21;31.67
69879;BME280;57161;43.136;24.706;2022-07-04T08:44:08;99306.91;;;33.25;31.07
69879;BME280;57161;43.136;24.706;2022-07-04T08:46:38;99294.44;;;33.10;30.18
69879;BME280;57161;43.136;24.706;2022-07-04T08:49:14;99302.44;;;33.14;31.86
69879;BME280;57161;43.136;24.706;2022-07-04T08:51:53;99303.91;;;33.17;30.78
69879;BME280;57161;43.136;24.706;2022-07-04T08:54:24;99299.56;;;33.16;30.82
69879;BME280;57161;43.136;24.706;2022-07-04T08:57:09;99290.94;;;33.20;31.04
69879;BME280;57161;43.136;24.706;2022-07-04T08:59:54;99278.66;;;33.22;31.15
69879;BME280;57161;43.136;24.706;2022-07-04T09:02:22;99287.53;;;33.36;31.01
69879;BME280;57161;43.136;24.706;2022-07-04T09:04:49;99285.25;;;33.30;30.91
69879;BME280;57161;43.136;24.706;2022-07-04T09:07:15;99286.84;;;33.39;30.96
69879;BME280;57161;43.136;24.706;2022-07-04T09:09:41;99298.53;;;33.48;31.34
69879;BME280;57161;43.136;24.706;2022-07-04T09:12:08;99282.56;;;33.45;30.79
69879;BME280;57161;43.136;24.706;2022-07-04T09:14:34;99293.53;;;33.54;31.02
69879;BME280;57161;43.136;24.706;2022-07-04T09:17:00;99285.25;;;33.28;30.98
69879;BME280;57161;43.136;24.706;2022-07-04T09:19:25;99283.16;;;33.35;31.39
69879;BME280;57161;43.136;24.706;2022-07-04T09:21:51;99278.81;;;33.34;30.93
69879;BME280;57161;43.136;24.706;2022-07-04T09:24:40;99280.50;;;33.53;31.23
69879;BME280;57161;43.136;24.706;2022-07-04T09:27:06;99280.56;;;33.59;30.87
69879;BME280;57161;43.136;24.706;2022-07-04T09:29:32;99282.13;;;33.70;31.03
69879;BME280;57161;43.136;24.706;2022-07-04T09:31:57;99285.84;;;33.79;30.83
69879;BME280;57161;43.136;24.706;2022-07-04T09:34:23;99285.84;;;33.79;30.47
69879;BME280;57161;43.136;24.706;2022-07-04T09:36:51;99285.25;;;33.91;30.32
69879;BME280;57161;43.136;24.706;2022-07-04T09:39:20;99277.31;;;33.93;31.31
69879;BME280;57161;43.136;24.706;2022-07-04T09:44:16;99267.94;;;33.99;30.28
69879;BME280;57161;43.136;24.706;2022-07-04T09:46:42;99265.84;;;34.06;30.63
69879;BME280;57161;43.136;24.706;2022-07-04T09:49:10;99275.44;;;34.32;31.32
69879;BME280;57161;43.136;24.706;2022-07-04T09:51:37;99275.56;;;34.41;29.99
69879;BME280;57161;43.136;24.706;2022-07-04T09:56:51;99276.28;;;34.39;30.47
69879;BME280;57161;43.136;24.706;2022-07-04T09:59:17;99256.03;;;34.49;30.84
69879;BME280;57161;43.136;24.706;2022-07-04T10:01:43;99269.13;;;34.56;30.63
69879;BME280;57161;43.136;24.706;2022-07-04T10:04:09;99253.78;;;34.38;30.33
69879;BME280;57161;43.136;24.706;2022-07-04T10:06:38;99269.06;;;34.44;30.53
69879;BME280;57161;43.136;24.706;2022-07-04T10:09:08;99259.66;;;34.48;30.64
69879;BME280;57161;43.136;24.706;2022-07-04T10:11:35;99253.13;;;34.47;30.47
69879;BME280;57161;43.136;24.706;2022-07-04T10:14:02;99257.56;;;34.60;30.44
69879;BME280;57161;43.136;24.706;2022-07-04T10:16:30;99255.34;;;34.55;30.33
69879;BME280;57161;43.136;24.706;2022-07-04T10:18:56;99244.84;;;34.11;31.44
69879;BME280;57161;43.136;24.706;2022-07-04T10:21:23;99245.50;;;34.01;31.59
69879;BME280;57161;43.136;24.706;2022-07-04T10:23:49;99248.28;;;33.87;31.57
69879;BME280;57161;43.136;24.706;2022-07-04T10:26:18;99243.81;;;33.78;32.08
69879;BME280;57161;43.136;24.706;2022-07-04T10:28:45;99242.53;;;33.93;32.43
69879;BME280;57161;43.136;24.706;2022-07-04T10:31:14;99236.84;;;34.04;32.11
69879;BME280;57161;43.136;24.706;2022-07-04T10:33:40;99235.44;;;34.13;31.44
69879;BME280;57161;43.136;24.706;2022-07-04T10:36:36;99248.34;;;33.95;31.93
69879;BME280;57161;43.136;24.706;2022-07-04T10:39:03;99205.28;;;33.61;31.92
69879;BME280;57161;43.136;24.706;2022-07-04T10:41:30;99219.19;;;33.77;32.16
69879;BME280;57161;43.136;24.706;2022-07-04T10:43:58;99232.44;;;34.00;31.46
69879;BME280;57161;43.136;24.706;2022-07-04T10:46:31;99241.91;;;34.05;31.85
69879;BME280;57161;43.136;24.706;2022-07-04T10:51:50;99229.88;;;34.41;31.63
69879;BME280;57161;43.136;24.706;2022-07-04T10:54:32;99228.59;;;34.67;31.61
69879;BME280;57161;43.136;24.706;2022-07-04T10:57:17;99233.69;;;34.72;31.40
69879;BME280;57161;43.136;24.706;2022-07-04T11:00:05;99235.34;;;35.08;30.62
69879;BME280;57161;43.136;24.706;2022-07-04T11:02:33;99217.91;;;35.06;30.10
69879;BME280;57161;43.136;24.706;2022-07-04T11:18:13;99194.13;;;35.50;29.62
69879;BME280;57161;43.136;24.706;2022-07-04T11:20:46;99204.25;;;35.37;29.47
69879;BME280;57161;43.136;24.706;2022-07-04T11:23:17;99201.38;;;35.51;29.84
69879;BME280;57161;43.136;24.706;2022-07-04T11:25:46;99177.41;;;35.59;28.82
69879;BME280;57161;43.136;24.706;2022-07-04T11:28:31;99195.59;;;35.65;29.49
69879;BME280;57161;43.136;24.706;2022-07-04T11:31:00;99185.41;;;35.76;28.45
69879;BME280;57161;43.136;24.706;2022-07-04T11:33:29;99181.78;;;35.74;29.19
69879;BME280;57161;43.136;24.706;2022-07-04T11:36:20;99183.97;;;35.69;28.94
69879;BME280;57161;43.136;24.706;2022-07-04T11:41:25;99182.47;;;35.42;29.42
69879;BME280;57161;43.136;24.706;2022-07-04T11:44:12;99178.78;;;35.29;29.46
69879;BME280;57161;43.136;24.706;2022-07-04T11:47:23;99190.34;;;35.05;29.83
69879;BME280;57161;43.136;24.706;2022-07-04T11:49:53;99182.31;;;34.95;29.31
69879;BME280;57161;43.136;24.706;2022-07-04T11:52:24;99154.06;;;35.04;28.81
69879;BME280;57161;43.136;24.706;2022-07-04T11:54:51;99161.31;;;35.13;29.30
69879;BME280;57161;43.136;24.706;2022-07-04T11:57:21;99162.84;;;35.34;29.33
69879;BME280;57161;43.136;24.706;2022-07-04T11:59:58;99172.31;;;35.51;29.35
69879;BME280;57161;43.136;24.706;2022-07-04T12:02:25;99162.16;;;35.70;29.42
69879;BME280;57161;43.136;24.706;2022-07-04T12:04:50;99157.09;;;35.65;29.46
69879;BME280;57161;43.136;24.706;2022-07-04T12:07:18;99160.00;;;35.67;29.11
69879;BME280;57161;43.136;24.706;2022-07-04T12:09:45;99160.69;;;35.47;29.00
69879;BME280;57161;43.136;24.706;2022-07-04T12:12:12;99159.16;;;35.15;29.52
69879;BME280;57161;43.136;24.706;2022-07-04T12:14:56;99155.50;;;35.13;29.61
69879;BME280;57161;43.136;24.706;2022-07-04T12:17:22;99153.34;;;35.11;29.44
69879;BME280;57161;43.136;24.706;2022-07-04T12:19:53;99128.63;;;34.96;29.18
69879;BME280;57161;43.136;24.706;2022-07-04T12:25:03;99152.69;;;35.35;29.49
69879;BME280;57161;43.136;24.706;2022-07-04T12:27:29;99143.22;;;35.35;29.17
69879;BME280;57161;43.136;24.706;2022-07-04T12:29:57;99134.50;;;35.20;29.38
69879;BME280;57161;43.136;24.706;2022-07-04T12:32:22;99112.00;;;35.29;29.46
69879;BME280;57161;43.136;24.706;2022-07-04T12:34:48;99136.00;;;35.58;29.37
69879;BME280;57161;43.136;24.706;2022-07-04T12:37:16;99128.75;;;35.73;29.43
69879;BME280;57161;43.136;24.706;2022-07-04T12:39:43;99135.28;;;36.17;29.13
69879;BME280;57161;43.136;24.706;2022-07-04T12:42:11;99119.25;;;36.34;28.83
69879;BME280;57161;43.136;24.706;2022-07-04T12:44:38;99131.50;;;36.59;28.74
69879;BME280;57161;43.136;24.706;2022-07-04T12:47:05;99132.84;;;36.96;28.66
69879;BME280;57161;43.136;24.706;2022-07-04T12:49:32;99133.38;;;37.25;27.59
69879;BME280;57161;43.136;24.706;2022-07-04T12:52:26;99128.91;;;37.45;26.81
69879;BME280;57161;43.136;24.706;2022-07-04T12:55:08;99119.38;;;37.52;27.02
69879;BME280;57161;43.136;24.706;2022-07-04T12:57:36;99113.72;;;37.32;27.27
69879;BME280;57161;43.136;24.706;2022-07-04T13:00:02;99112.38;;;37.09;27.64
69879;BME280;57161;43.136;24.706;2022-07-04T13:02:28;99105.94;;;36.88;27.87
69879;BME280;57161;43.136;24.706;2022-07-04T13:04:54;99109.66;;;36.70;27.82
69879;BME280;57161;43.136;24.706;2022-07-04T13:07:19;99114.03;;;36.67;28.39
69879;BME280;57161;43.136;24.706;2022-07-04T13:09:45;99115.38;;;36.96;28.58
69879;BME280;57161;43.136;24.706;2022-07-04T13:12:12;99101.38;;;37.21;27.79
69879;BME280;57161;43.136;24.706;2022-07-04T13:14:51;99104.94;;;37.34;26.93
69879;BME280;57161;43.136;24.706;2022-07-04T13:17:17;99104.88;;;37.40;27.70
69879;BME280;57161;43.136;24.706;2022-07-04T13:19:43;99100.63;;;37.29;27.63
69879;BME280;57161;43.136;24.706;2022-07-04T13:22:08;99102.19;;;37.06;27.25
69879;BME280;57161;43.136;24.706;2022-07-04T13:24:34;99104.47;;;36.89;27.68
69879;BME280;57161;43.136;24.706;2022-07-04T13:26:59;99093.59;;;36.79;27.93
69879;BME280;57161;43.136;24.706;2022-07-04T13:29:25;99105.78;;;37.14;28.69
69879;BME280;57161;43.136;24.706;2022-07-04T13:31:50;99094.03;;;37.33;28.04
69879;BME280;57161;43.136;24.706;2022-07-04T13:34:16;99091.72;;;37.49;27.92
69879;BME280;57161;43.136;24.706;2022-07-04T13:36:42;99094.56;;;37.55;27.99
69879;BME280;57161;43.136;24.706;2022-07-04T13:39:07;99102.56;;;37.57;27.65
69879;BME280;57161;43.136;24.706;2022-07-04T13:41:34;99085.78;;;37.62;27.44
69879;BME280;57161;43.136;24.706;2022-07-04T13:44:04;99081.41;;;37.63;27.73
69879;BME280;57161;43.136;24.706;2022-07-04T13:46:30;99088.72;;;37.62;27.09
69879;BME280;57161;43.136;24.706;2022-07-04T13:49:03;99072.81;;;37.46;27.23
69879;BME280;57161;43.136;24.706;2022-07-04T13:51:29;99087.50;;;37.32;27.99
69879;BME280;57161;43.136;24.706;2022-07-04T13:53:55;99063.06;;;36.74;27.86
69879;BME280;57161;43.136;24.706;2022-07-04T13:56:21;99069.59;;;36.77;27.95